Mechanicsburg, IL (62545)

4:39 PM CDT on July 04, 2015 (GMT -0500)
South Weather Station | | Change Station
CLOSE
Current Station
Personal Weather Station
Location: Mechanicsburg, IL
Elevation: 587 ft
Nearby Weather Stations

Elev 587 ft 39.80 °N, 89.40 °W | Updated 27 seconds ago

Clear
Clear
81.0 °F
Feels Like 83 °F
N
4.0
Wind Variable Wind from NNE
Gusts 4.0 mph

Today
High -- | Low -- °F
--% Chance of Precip.
Yesterday
High -- | Low -- °F
Precip. -- in
5:34 AM 8:29 PM
Waning Gibbous, 90% visible
Pressure 29.99 in
Visibility 10.0 miles
Clouds Clear
Heat Index 83 °F
Dew Point 66 °F
Humidity 60%
Rainfall 0.00 in
Snow Depth Not available.
UV 8 out of 12
Pollen 3.60 out of 12
Air Quality Not available.
Flu Activity Not available.
METAR KSPI 042052Z 00000KT 10SM CLR 28/16 A3000 RMK AO2 SLP154 T02830161 58008

More Conditions Fewer Conditions

Pressure 29.99 in
Visibility 10.0 miles
Clouds Clear
Heat Index 83 °F
Dew Point 66 °F
Humidity 60%
Rainfall 0.00 in
Snow Depth Not available.
UV 8 out of 12
Pollen 3.60 out of 12
Air Quality Not available.
Flu Activity Not available.
METAR KSPI 042052Z 00000KT 10SM CLR 28/16 A3000 RMK AO2 SLP154 T02830161 58008

More Conditions Fewer Conditions

10-Day Weather Forecast

×

Almanac

Astronomy

Jul. 04, 2015 Rise Set
Actual Time
Civil Twilight
Nautical Twilight
Astronomical Twilight
Moon
Length of Visible Light
Length of Day
Tomorrow will be .
, % of the Moon is Illuminated

Today's Extremes

State Highs State Lows

Community

WunderPhotos

Upload Photos

1,835,106 photos uploaded!

WunderBlogs® & News

Nearby

Air Quality

  Air Quality AQ Index Pollutant
Not available.

Snow Depth

Station Depth Elevation

Earthquake Activity

City Distance Mag. Time & Date
Minimum magnitude displayed is 2.5.

Coastal Water Temperatures

Place Temperature

Stations

Nearby Weather Stations

Station Location Temp. Windchill Dew Point Humidity Wind Precip. Elev Updated Type